Time;durP1;ratioP1;P1;durP2;ratioP2;P2;SDS_P1;SDS_P2;PMS_P1;PMS_P2;Temp;Humidity;BMP_temperature;BMP_pressure;BME280_temperature;BME280_humidity;BME280_pressure;Samples;Min_cycle;Max_cycle;Signal;HPM_P1;HPM_P2
2022/12/25 00:00:29;;;;;;;38.70;21.23;;;7.90;96.10;;;;;;6153469;23;20247;-78
2022/12/25 00:02:58;;;;;;;40.77;20.87;;;7.90;96.10;;;;;;6151744;23;20173;-78
2022/12/25 00:05:27;;;;;;;32.67;19.90;;;7.80;96.00;;;;;;6149402;23;20569;-78
2022/12/25 00:07:55;;;;;;;39.83;20.43;;;7.80;95.90;;;;;;6152633;23;20584;-78
2022/12/25 00:10:23;;;;;;;37.10;19.53;;;7.80;95.90;;;;;;6150914;23;20176;-78
2022/12/25 00:12:53;;;;;;;37.53;18.13;;;7.80;95.90;;;;;;6152042;23;20169;-78
2022/12/25 00:15:21;;;;;;;39.53;20.87;;;7.80;95.80;;;;;;6152741;23;20169;-77
2022/12/25 00:17:50;;;;;;;36.67;19.77;;;7.80;95.70;;;;;;6151217;23;20176;-77
2022/12/25 00:20:18;;;;;;;37.87;20.53;;;7.80;95.70;;;;;;6148987;23;20543;-79
2022/12/25 00:22:46;;;;;;;37.63;20.00;;;7.80;95.70;;;;;;6149879;23;20235;-76
2022/12/25 00:25:15;;;;;;;37.47;19.63;;;7.80;95.60;;;;;;6152202;23;20176;-76
2022/12/25 00:27:43;;;;;;;37.30;19.40;;;7.70;95.50;;;;;;6150671;23;20177;-76
2022/12/25 00:30:13;;;;;;;35.83;19.27;;;7.70;95.50;;;;;;6151230;23;20735;-77
2022/12/25 00:32:42;;;;;;;33.67;18.87;;;7.70;95.50;;;;;;6151519;23;20223;-78
2022/12/25 00:35:10;;;;;;;37.10;20.20;;;7.70;95.40;;;;;;6152408;23;20199;-77
2022/12/25 00:37:38;;;;;;;35.73;18.70;;;7.70;95.40;;;;;;6147875;23;20239;-77
2022/12/25 00:40:08;;;;;;;33.77;18.43;;;7.70;95.50;;;;;;6150236;23;20200;-77
2022/12/25 00:42:36;;;;;;;32.87;18.33;;;7.70;95.50;;;;;;6149327;23;20172;-77
2022/12/25 00:45:05;;;;;;;37.00;18.47;;;7.70;95.50;;;;;;6152069;23;20497;-76
2022/12/25 00:47:35;;;;;;;37.40;18.10;;;7.70;95.50;;;;;;6149148;23;20239;-77
2022/12/25 00:50:04;;;;;;;34.17;17.47;;;7.70;95.40;;;;;;6150846;23;20181;-76
2022/12/25 00:52:33;;;;;;;31.43;17.77;;;7.80;95.40;;;;;;6153368;23;20238;-78
2022/12/25 00:55:01;;;;;;;36.77;18.70;;;7.80;95.20;;;;;;6150236;23;20205;-78
2022/12/25 00:57:29;;;;;;;33.33;18.50;;;7.70;95.00;;;;;;6150081;23;20182;-78
2022/12/25 00:59:58;;;;;;;38.80;19.30;;;7.70;95.10;;;;;;6152356;23;20254;-79
2022/12/25 01:02:26;;;;;;;31.27;17.00;;;7.70;95.00;;;;;;6147846;23;20556;-78
2022/12/25 01:04:57;;;;;;;36.17;19.17;;;7.70;94.90;;;;;;6152307;23;20167;-77
2022/12/25 01:07:26;;;;;;;38.40;20.55;;;7.60;94.90;;;;;;6151967;23;20426;-78
2022/12/25 01:12:42;;;;;;;35.37;18.70;;;7.60;95.40;;;;;;6151024;23;20211;-78
2022/12/25 01:15:12;;;;;;;37.93;19.53;;;7.60;95.10;;;;;;6152307;23;20546;-77
2022/12/25 01:17:40;;;;;;;36.07;20.10;;;7.60;95.20;;;;;;6151235;23;20192;-77
2022/12/25 01:20:13;;;;;;;37.87;20.43;;;7.60;95.20;;;;;;6152673;23;20180;-78
2022/12/25 01:22:42;;;;;;;33.87;18.83;;;7.60;95.00;;;;;;6148767;23;20164;-78
2022/12/25 01:25:11;;;;;;;40.30;20.70;;;7.60;94.90;;;;;;6152502;23;20230;-78
2022/12/25 01:27:41;;;;;;;35.43;19.47;;;7.60;94.70;;;;;;6150328;23;20173;-77
2022/12/25 01:30:11;;;;;;;37.27;19.70;;;7.60;94.70;;;;;;6148814;23;20178;-77
2022/12/25 01:32:39;;;;;;;39.53;19.73;;;7.60;94.70;;;;;;6151425;23;20203;-78
2022/12/25 01:35:08;;;;;;;36.70;19.00;;;7.60;94.70;;;;;;6150116;23;20203;-78
2022/12/25 01:37:38;;;;;;;34.87;18.73;;;7.60;94.70;;;;;;6152036;23;20261;-78
2022/12/25 01:40:07;;;;;;;37.77;19.60;;;7.60;94.70;;;;;;6152191;23;20172;-78
2022/12/25 01:42:36;;;;;;;37.20;19.90;;;7.60;94.50;;;;;;6151210;23;20179;-78
2022/12/25 01:45:35;;;;;;;38.00;20.23;;;7.60;94.50;;;;;;6149742;23;20229;-78
2022/12/25 01:48:09;;;;;;;34.13;18.10;;;7.60;94.50;;;;;;6151896;23;20484;-77
2022/12/25 01:50:41;;;;;;;35.70;18.97;;;7.60;94.50;;;;;;6152689;23;20208;-78
2022/12/25 01:53:12;;;;;;;42.30;19.80;;;7.60;94.50;;;;;;6149302;23;20235;-77
2022/12/25 01:55:42;;;;;;;33.53;19.20;;;7.50;94.30;;;;;;6145711;23;20194;-78
2022/12/25 01:58:10;;;;;;;36.23;19.40;;;7.50;94.20;;;;;;6153038;23;20164;-78
2022/12/25 02:00:39;;;;;;;32.20;19.07;;;7.50;94.20;;;;;;6150090;23;20203;-78
2022/12/25 02:03:07;;;;;;;35.43;18.67;;;7.50;94.20;;;;;;6150260;23;20175;-78
2022/12/25 02:05:36;;;;;;;35.57;18.60;;;7.50;94.30;;;;;;6148562;23;20183;-78
2022/12/25 02:08:09;;;;;;;37.23;20.90;;;7.50;94.30;;;;;;6148602;23;20671;-78
2022/12/25 02:10:39;;;;;;;36.23;19.00;;;7.40;94.20;;;;;;6152080;23;20218;-78
2022/12/25 02:13:08;;;;;;;41.10;19.70;;;7.40;94.10;;;;;;6150928;23;20641;-78
2022/12/25 02:15:45;;;;;;;34.27;18.27;;;7.30;94.10;;;;;;6149754;23;20204;-77
2022/12/25 02:18:23;;;;;;;35.50;18.07;;;7.30;94.30;;;;;;6137853;23;20178;-77
2022/12/25 02:21:04;;;;;;;30.80;16.23;;;7.30;94.40;;;;;;6147349;23;20179;-78
2022/12/25 02:24:04;;;;;;;29.90;16.10;;;7.30;94.50;;;;;;6150207;23;20164;-78
2022/12/25 02:27:02;;;;;;;32.50;16.80;;;7.30;94.60;;;;;;6152400;23;20597;-76
2022/12/25 02:29:42;;;;;;;32.33;16.43;;;7.30;94.60;;;;;;6130296;23;20559;-77
2022/12/25 02:32:18;;;;;;;28.67;15.70;;;7.30;94.40;;;;;;6152361;23;20613;-77
2022/12/25 02:34:51;;;;;;;37.47;16.90;;;7.30;94.40;;;;;;6149751;23;20200;-76
2022/12/25 02:37:27;;;;;;;33.50;17.13;;;7.30;94.50;;;;;;6153207;23;20171;-76
2022/12/25 02:40:00;;;;;;;32.43;17.10;;;7.30;94.40;;;;;;6150579;23;20174;-77
2022/12/25 03:08:22;;;;;;;28.80;15.57;;;7.30;94.00;;;;;;6149897;23;20168;-78
2022/12/25 03:13:45;;;;;;;28.33;15.20;;;7.20;93.80;;;;;;6153682;23;20177;-78
2022/12/25 03:26:53;;;;;;;29.00;14.57;;;7.20;93.90;;;;;;6151059;23;20178;-77
2022/12/25 03:27:16;;;;;;;27.93;14.43;;;7.20;93.80;;;;;;6059151;23;20178;-78
2022/12/25 03:32:42;;;;;;;22.97;12.67;;;7.20;93.50;;;;;;6151701;23;20164;-77
2022/12/25 03:35:23;;;;;;;26.10;14.47;;;7.10;93.50;;;;;;6149988;23;20726;-78
2022/12/25 04:36:53;;;;;;;18.83;10.13;;;7.40;93.90;;;;;;6151033;23;20192;-77
2022/12/25 04:39:21;;;;;;;16.90;9.77;;;7.40;93.70;;;;;;6149390;23;20179;-78
2022/12/25 04:41:51;;;;;;;18.83;10.80;;;7.40;93.70;;;;;;6151272;23;20543;-77
2022/12/25 04:44:19;;;;;;;20.40;9.90;;;7.40;93.50;;;;;;6147820;23;20179;-77
2022/12/25 04:46:47;;;;;;;19.97;9.67;;;7.40;93.50;;;;;;6149324;23;20179;-79
2022/12/25 04:49:16;;;;;;;19.33;9.67;;;7.30;93.50;;;;;;6150672;23;20201;-77
2022/12/25 04:51:44;;;;;;;24.07;10.43;;;7.30;93.50;;;;;;6150769;23;20180;-78
2022/12/25 04:54:13;;;;;;;19.07;10.80;;;7.30;93.50;;;;;;6151086;23;20187;-77
2022/12/25 04:56:41;;;;;;;18.43;9.73;;;7.30;93.50;;;;;;6152787;23;20199;-77
2022/12/25 04:59:14;;;;;;;19.47;10.33;;;7.30;93.50;;;;;;6151440;23;20172;-76
2022/12/25 05:01:42;;;;;;;21.30;10.07;;;7.30;93.20;;;;;;6149724;23;20265;-77
2022/12/25 05:04:11;;;;;;;18.53;10.07;;;7.30;93.20;;;;;;6150242;23;20207;-78
2022/12/25 05:06:40;;;;;;;18.10;10.27;;;7.30;93.30;;;;;;6153193;23;20198;-76
2022/12/25 05:09:09;;;;;;;16.33;9.13;;;7.30;93.20;;;;;;6147143;23;20201;-76
2022/12/25 05:11:37;;;;;;;19.07;8.77;;;7.20;93.20;;;;;;6151150;23;20237;-79
2022/12/25 05:14:06;;;;;;;20.53;9.33;;;7.20;93.10;;;;;;6151604;23;20222;-77
2022/12/25 05:16:35;;;;;;;17.53;9.10;;;7.20;93.10;;;;;;6149896;23;20195;-77
2022/12/25 05:19:04;;;;;;;17.70;9.13;;;7.20;93.10;;;;;;6151420;23;20222;-77
2022/12/25 05:21:32;;;;;;;17.53;9.67;;;7.10;93.10;;;;;;6150984;23;20503;-77
2022/12/25 05:24:01;;;;;;;12.97;7.73;;;7.10;93.10;;;;;;6150202;23;20167;-77
2022/12/25 05:26:29;;;;;;;19.93;9.17;;;7.10;93.10;;;;;;6150476;23;20182;-78
2022/12/25 05:28:59;;;;;;;14.73;8.10;;;7.10;93.30;;;;;;6147574;23;20234;-77
2022/12/25 05:31:27;;;;;;;17.00;7.97;;;7.10;93.40;;;;;;6151217;23;20176;-77
2022/12/25 05:33:57;;;;;;;14.93;8.00;;;7.10;93.40;;;;;;6150671;23;20255;-76
2022/12/25 05:36:25;;;;;;;15.77;7.73;;;7.10;93.50;;;;;;6152687;23;20207;-77
2022/12/25 05:38:53;;;;;;;10.57;6.70;;;7.10;93.40;;;;;;6146803;23;20187;-77
2022/12/25 05:41:22;;;;;;;12.57;7.20;;;7.10;93.50;;;;;;6143467;23;20694;-77
2022/12/25 05:43:50;;;;;;;13.40;7.67;;;7.10;93.50;;;;;;6149262;23;20295;-76
2022/12/25 05:46:18;;;;;;;13.60;7.10;;;7.20;93.60;;;;;;6148562;23;20176;-77
2022/12/25 05:48:47;;;;;;;11.50;6.73;;;7.20;93.60;;;;;;6146602;23;20188;-78
2022/12/25 05:51:19;;;;;;;14.67;7.17;;;7.20;93.60;;;;;;6096839;23;20172;-77
2022/12/25 05:53:48;;;;;;;12.83;6.90;;;7.20;93.50;;;;;;6151500;23;20171;-77
2022/12/25 05:56:17;;;;;;;13.17;6.80;;;7.30;93.50;;;;;;6148943;23;20720;-77
2022/12/25 05:58:45;;;;;;;12.73;6.83;;;7.30;93.50;;;;;;6141878;23;20175;-77
2022/12/25 06:01:17;;;;;;;15.10;6.97;;;7.30;93.30;;;;;;6145530;23;20200;-77
2022/12/25 06:03:45;;;;;;;16.00;7.27;;;7.30;93.30;;;;;;6144544;23;20259;-77
2022/12/25 06:06:14;;;;;;;14.37;8.00;;;7.30;93.30;;;;;;6146285;23;20175;-78
2022/12/25 06:08:44;;;;;;;14.77;6.90;;;7.30;93.30;;;;;;6151453;23;20176;-76
2022/12/25 06:11:13;;;;;;;12.47;6.60;;;7.30;93.30;;;;;;6152337;23;20176;-79
2022/12/25 06:13:42;;;;;;;13.93;6.43;;;7.30;93.30;;;;;;6148239;23;20172;-77
2022/12/25 06:16:12;;;;;;;13.57;7.68;;;7.30;93.40;;;;;;6151443;23;20414;-77
2022/12/25 06:18:42;;;;;;;14.13;6.83;;;7.30;93.70;;;;;;6149248;23;20173;-78
2022/12/25 06:21:12;;;;;;;12.40;7.07;;;7.40;93.80;;;;;;6152056;23;20173;-78
2022/12/25 06:23:45;;;;;;;13.10;6.80;;;7.40;93.60;;;;;;6155551;23;20165;-78
2022/12/25 06:26:16;;;;;;;10.90;6.80;;;7.50;93.50;;;;;;6154569;23;20165;-78
2022/12/25 06:28:45;;;;;;;13.40;7.43;;;7.50;93.40;;;;;;6151856;23;20164;-78
2022/12/25 06:31:15;;;;;;;14.83;7.43;;;7.60;93.50;;;;;;6151057;23;20173;-78
2022/12/25 06:33:43;;;;;;;12.70;6.30;;;7.60;93.30;;;;;;6150290;23;20161;-78
2022/12/25 06:36:17;;;;;;;11.27;7.10;;;7.60;93.20;;;;;;6150782;23;20258;-78
2022/12/25 06:38:47;;;;;;;14.30;7.53;;;7.70;93.20;;;;;;6154669;23;20238;-78
2022/12/25 06:41:18;;;;;;;14.07;7.30;;;7.70;93.00;;;;;;6152569;23;20211;-77
2022/12/25 06:43:49;;;;;;;14.87;6.97;;;7.70;92.90;;;;;;6150574;23;20168;-78
2022/12/25 06:46:18;;;;;;;15.90;6.57;;;7.60;93.00;;;;;;6152639;23;20172;-75
2022/12/25 06:48:48;;;;;;;12.63;7.13;;;7.70;93.20;;;;;;6151568;23;20176;-76
2022/12/25 06:51:17;;;;;;;13.03;6.87;;;7.70;93.20;;;;;;6148676;23;20175;-77
2022/12/25 06:53:47;;;;;;;12.80;7.37;;;7.80;93.30;;;;;;6151619;23;20184;-76
2022/12/25 06:56:18;;;;;;;13.43;7.40;;;7.80;93.30;;;;;;6150964;23;20190;-78
2022/12/25 06:58:48;;;;;;;14.23;7.07;;;7.90;93.30;;;;;;6148878;23;20528;-77
2022/12/25 07:01:21;;;;;;;20.03;8.03;;;7.90;93.30;;;;;;6149128;23;20524;-77
2022/12/25 07:03:52;;;;;;;14.32;7.63;;;7.90;93.30;;;;;;6152827;23;20847;-78
2022/12/25 07:06:20;;;;;;;13.07;7.23;;;8.00;93.40;;;;;;6151099;23;20164;-77
2022/12/25 07:08:50;;;;;;;13.93;6.83;;;8.10;93.50;;;;;;6151420;23;20568;-77
2022/12/25 07:11:19;;;;;;;12.10;6.97;;;8.20;93.60;;;;;;6150437;23;20172;-77
2022/12/25 07:13:47;;;;;;;10.50;6.20;;;8.30;93.60;;;;;;6151793;23;20173;-77
2022/12/25 07:16:19;;;;;;;12.73;7.40;;;8.40;93.40;;;;;;6154348;23;20231;-77
2022/12/25 07:18:47;;;;;;;12.20;6.70;;;8.50;93.40;;;;;;6147091;23;20227;-79
2022/12/25 07:21:18;;;;;;;13.10;7.37;;;8.60;93.50;;;;;;6150859;23;20562;-77
2022/12/25 07:23:48;;;;;;;11.07;6.70;;;8.80;93.30;;;;;;6153278;23;20165;-78
2022/12/25 07:26:21;;;;;;;11.23;6.87;;;8.80;93.30;;;;;;6153334;23;20161;-77
2022/12/25 07:28:49;;;;;;;12.85;7.47;;;8.90;93.20;;;;;;6153128;23;20393;-77
2022/12/25 07:31:18;;;;;;;11.80;7.30;;;9.00;93.10;;;;;;6153979;23;20173;-78
2022/12/25 07:33:46;;;;;;;15.90;7.43;;;9.00;92.80;;;;;;6149311;23;20173;-77
2022/12/25 07:36:15;;;;;;;15.80;8.23;;;9.20;92.90;;;;;;6150816;23;20239;-76
2022/12/25 07:38:44;;;;;;;13.03;6.87;;;9.20;93.10;;;;;;6154762;23;20172;-77
2022/12/25 07:41:12;;;;;;;16.00;8.20;;;9.40;93.00;;;;;;6151999;23;20200;-77
2022/12/25 07:43:43;;;;;;;17.40;8.63;;;9.40;92.50;;;;;;6150960;23;20176;-78
2022/12/25 07:46:11;;;;;;;15.80;8.10;;;9.50;92.50;;;;;;6153018;23;20161;-78
2022/12/25 07:48:58;;;;;;;14.20;8.20;;;9.60;92.60;;;;;;6150286;23;20180;-78
2022/12/25 07:51:28;;;;;;;15.73;8.73;;;9.80;92.80;;;;;;6148867;23;20680;-77
2022/12/25 07:53:57;;;;;;;17.27;8.80;;;9.80;92.30;;;;;;6149859;23;20164;-78
2022/12/25 07:56:25;;;;;;;17.30;9.60;;;9.90;92.10;;;;;;6152546;23;20172;-78
2022/12/25 07:58:55;;;;;;;14.57;9.20;;;9.90;91.60;;;;;;6153803;23;20535;-79
2022/12/25 08:01:26;;;;;;;16.10;9.37;;;10.00;91.70;;;;;;6148583;23;20314;-78
2022/12/25 08:03:57;;;;;;;16.30;9.30;;;10.10;91.80;;;;;;6152338;23;20161;-78
2022/12/25 08:06:29;;;;;;;18.23;9.50;;;10.20;91.90;;;;;;6152350;23;20157;-78
2022/12/25 08:08:57;;;;;;;18.50;9.70;;;10.30;91.70;;;;;;6148315;23;20164;-78
2022/12/25 08:11:27;;;;;;;17.87;9.53;;;10.40;91.90;;;;;;6146475;23;20173;-79
2022/12/25 08:13:57;;;;;;;17.63;9.60;;;10.50;91.80;;;;;;6149116;23;20199;-78
2022/12/25 08:16:26;;;;;;;17.67;8.43;;;10.60;91.80;;;;;;6148724;23;20234;-79
2022/12/25 08:18:57;;;;;;;14.53;8.53;;;10.80;91.90;;;;;;6153435;23;20220;-78
2022/12/25 08:21:25;;;;;;;18.27;9.37;;;10.90;91.60;;;;;;6153374;23;20172;-78
2022/12/25 08:23:53;;;;;;;15.13;8.47;;;11.00;91.20;;;;;;6147091;23;20172;-78
2022/12/25 08:26:23;;;;;;;16.33;9.20;;;11.10;91.20;;;;;;6146922;23;20169;-78
2022/12/25 08:28:55;;;;;;;15.90;8.50;;;11.10;90.30;;;;;;6150117;23;20204;-79
2022/12/25 08:31:26;;;;;;;13.87;7.13;;;11.20;90.50;;;;;;6150032;23;20172;-78
2022/12/25 08:33:57;;;;;;;15.53;8.33;;;11.30;90.60;;;;;;6149531;23;20165;-78
2022/12/25 08:36:25;;;;;;;13.40;8.00;;;11.30;90.30;;;;;;6149258;23;20559;-78
2022/12/25 08:38:54;;;;;;;14.47;8.80;;;11.40;89.40;;;;;;6150743;23;20172;-79
2022/12/25 08:41:30;;;;;;;16.50;8.80;;;11.40;89.20;;;;;;6150635;23;20502;-79
2022/12/25 08:43:59;;;;;;;15.87;7.53;;;11.50;90.10;;;;;;6151156;23;20176;-78
2022/12/25 08:46:28;;;;;;;14.27;7.90;;;11.60;90.10;;;;;;6151167;23;20172;-79
2022/12/25 08:48:57;;;;;;;18.10;7.97;;;11.60;88.10;;;;;;6148649;23;20269;-80
2022/12/25 08:51:26;;;;;;;14.40;8.20;;;11.70;89.20;;;;;;6151397;23;20172;-79
2022/12/25 08:53:59;;;;;;;14.03;7.37;;;11.80;89.90;;;;;;6149442;23;20199;-80
2022/12/25 08:56:28;;;;;;;16.63;8.37;;;11.80;90.00;;;;;;6147418;23;20179;-77
2022/12/25 08:59:20;;;;;;;14.43;8.07;;;11.90;90.20;;;;;;6145573;23;20180;-78
2022/12/25 09:01:50;;;;;;;17.70;8.73;;;12.00;90.00;;;;;;6116351;23;20161;-77
2022/12/25 09:04:19;;;;;;;15.10;9.07;;;12.10;89.60;;;;;;6121141;23;20173;-78
2022/12/25 09:06:49;;;;;;;13.53;8.47;;;12.10;90.30;;;;;;6120409;23;20173;-77
2022/12/25 09:09:17;;;;;;;17.90;9.53;;;12.20;89.80;;;;;;6121105;23;20197;-78
2022/12/25 09:11:45;;;;;;;18.37;8.90;;;12.30;90.10;;;;;;6114866;23;20220;-77
2022/12/25 09:14:14;;;;;;;16.95;9.52;;;12.30;89.60;;;;;;6118031;23;20388;-76
2022/12/25 09:16:42;;;;;;;17.37;9.17;;;12.40;89.60;;;;;;6118862;23;20177;-76
2022/12/25 09:19:12;;;;;;;15.50;8.17;;;12.50;89.70;;;;;;6116744;23;20548;-77
2022/12/25 09:21:40;;;;;;;15.23;7.83;;;12.60;89.50;;;;;;6117961;23;20713;-78
2022/12/25 09:24:08;;;;;;;16.30;9.63;;;12.60;89.60;;;;;;6119515;23;20177;-78
2022/12/25 09:26:37;;;;;;;15.70;7.30;;;12.70;89.10;;;;;;6117902;23;20172;-77
2022/12/25 09:29:06;;;;;;;12.63;7.35;;;12.80;89.30;;;;;;6121168;23;20408;-78
2022/12/25 09:31:37;;;;;;;12.27;6.87;;;12.90;89.40;;;;;;6122723;23;20174;-77
2022/12/25 09:34:05;;;;;;;12.00;6.67;;;13.00;89.30;;;;;;6121676;23;20220;-77
2022/12/25 09:36:35;;;;;;;12.50;7.03;;;13.10;89.00;;;;;;6121293;23;20643;-78
2022/12/25 09:39:03;;;;;;;13.23;7.80;;;13.20;88.70;;;;;;6120749;23;20174;-78
2022/12/25 09:41:35;;;;;;;13.63;8.97;;;13.30;88.70;;;;;;6122958;23;20391;-79
2022/12/25 09:44:06;;;;;;;17.97;9.83;;;13.40;88.40;;;;;;6121229;23;20214;-77
2022/12/25 09:46:40;;;;;;;18.83;10.63;;;13.40;88.10;;;;;;6118463;23;20215;-78
2022/12/25 09:49:21;;;;;;;16.53;8.97;;;13.50;88.30;;;;;;6119833;23;20185;-78
2022/12/25 09:51:57;;;;;;;15.27;9.23;;;13.50;88.60;;;;;;6121323;23;20531;-78
2022/12/25 09:54:36;;;;;;;18.67;8.20;;;13.60;88.80;;;;;;6121992;23;20161;-78
2022/12/25 09:57:05;;;;;;;12.07;6.27;;;13.70;88.20;;;;;;6123521;23;20215;-77
2022/12/25 09:59:34;;;;;;;14.13;6.60;;;13.80;88.50;;;;;;6127012;23;20181;-78
2022/12/25 10:02:25;;;;;;;11.07;6.20;;;13.80;88.20;;;;;;6146212;23;20224;-78
2022/12/25 10:05:24;;;;;;;16.83;6.97;;;14.00;88.10;;;;;;6150115;23;20184;-78
2022/12/25 10:08:01;;;;;;;11.10;6.03;;;14.00;87.60;;;;;;6148357;23;20168;-77
2022/12/25 10:10:46;;;;;;;9.93;5.17;;;14.10;87.70;;;;;;6152708;23;20558;-78
2022/12/25 10:13:38;;;;;;;6.47;3.50;;;14.20;87.70;;;;;;6148069;23;20207;-78
2022/12/25 10:16:16;;;;;;;7.53;3.73;;;14.30;86.30;;;;;;6148661;23;20228;-78
2022/12/25 10:19:04;;;;;;;6.17;3.47;;;14.30;85.50;;;;;;6149979;23;20236;-78
2022/12/25 10:21:35;;;;;;;7.17;3.93;;;14.50;84.70;;;;;;6147831;23;20693;-77
2022/12/25 10:24:16;;;;;;;7.30;3.40;;;14.50;81.80;;;;;;6148397;23;20223;-79
2022/12/25 10:26:45;;;;;;;8.63;3.77;;;14.50;80.40;;;;;;6151208;23;20184;-78
2022/12/25 10:29:16;;;;;;;6.67;3.20;;;14.60;80.50;;;;;;6149585;23;20584;-78
2022/12/25 10:31:48;;;;;;;5.57;2.90;;;14.70;81.00;;;;;;6147048;23;20193;-79
2022/12/25 10:34:17;;;;;;;5.37;2.57;;;14.80;80.80;;;;;;6116478;23;20172;-79
2022/12/25 10:36:47;;;;;;;3.97;2.17;;;14.90;80.20;;;;;;6146478;23;20180;-79
2022/12/25 10:39:19;;;;;;;5.50;2.90;;;14.90;80.20;;;;;;6145961;23;20173;-78
2022/12/25 10:42:17;;;;;;;3.17;1.70;;;15.10;79.80;;;;;;6150855;23;20168;-80
2022/12/25 10:48:47;;;;;;;2.23;1.47;;;15.20;78.60;;;;;;6147232;23;20169;-79
2022/12/25 10:51:30;;;;;;;3.47;2.00;;;15.30;78.00;;;;;;6151453;23;20923;-79
2022/12/25 10:54:02;;;;;;;1.93;1.40;;;15.40;75.90;;;;;;6153379;23;20165;-78
2022/12/25 10:56:32;;;;;;;4.90;2.37;;;15.50;77.10;;;;;;6151476;23;20169;-78
2022/12/25 10:59:07;;;;;;;4.90;2.23;;;15.50;75.70;;;;;;6153675;23;20572;-79
2022/12/25 11:01:35;;;;;;;6.03;1.90;;;15.60;74.40;;;;;;6154817;23;20200;-79
2022/12/25 11:04:04;;;;;;;14.90;8.17;;;15.60;74.10;;;;;;6152035;23;20202;-78
2022/12/25 11:06:33;;;;;;;4.20;2.23;;;15.70;73.60;;;;;;6155057;23;20176;-79
2022/12/25 11:09:02;;;;;;;13.70;6.60;;;15.70;72.00;;;;;;6152851;23;20196;-78
2022/12/25 11:11:41;;;;;;;5.27;2.13;;;15.80;73.90;;;;;;6149871;23;20186;-78
2022/12/25 11:14:19;;;;;;;10.37;7.00;;;15.80;71.10;;;;;;6150992;23;20171;-78
2022/12/25 11:16:47;;;;;;;5.13;2.20;;;15.90;69.80;;;;;;6150693;23;20219;-79
2022/12/25 11:19:26;;;;;;;3.33;1.80;;;15.90;68.00;;;;;;6153245;23;20172;-78
2022/12/25 11:21:56;;;;;;;4.63;2.30;;;15.90;68.30;;;;;;6153494;23;20165;-78
2022/12/25 11:24:27;;;;;;;7.03;3.03;;;16.00;68.00;;;;;;6151775;23;20219;-78
2022/12/25 11:26:59;;;;;;;4.53;2.40;;;16.00;68.50;;;;;;6154590;23;20708;-79
2022/12/25 11:29:37;;;;;;;5.23;3.03;;;16.10;68.60;;;;;;6152179;23;20668;-78
2022/12/25 11:32:11;;;;;;;6.73;2.60;;;16.10;68.60;;;;;;6153630;23;20238;-80
2022/12/25 11:34:45;;;;;;;3.27;1.30;;;16.10;66.60;;;;;;6153560;23;20161;-78
2022/12/25 11:37:21;;;;;;;8.83;4.50;;;16.20;65.00;;;;;;6151886;23;20161;-79
2022/12/25 11:39:49;;;;;;;26.87;15.63;;;16.20;66.10;;;;;;6152052;23;20167;-79
2022/12/25 11:42:25;;;;;;;11.67;6.80;;;16.20;66.40;;;;;;6152735;23;20235;-80
2022/12/25 11:45:07;;;;;;;19.07;10.53;;;16.30;66.20;;;;;;6150453;23;20235;-78
2022/12/25 11:47:43;;;;;;;8.93;3.17;;;16.30;66.40;;;;;;6154543;23;20165;-79
2022/12/25 11:50:23;;;;;;;8.93;4.90;;;16.40;67.30;;;;;;6153728;23;20184;-78
2022/12/25 11:52:53;;;;;;;36.97;19.57;;;16.40;66.20;;;;;;6151688;23;20164;-78
2022/12/25 11:55:29;;;;;;;9.20;5.00;;;16.40;66.70;;;;;;6152922;23;20157;-78
2022/12/25 11:58:04;;;;;;;51.30;25.53;;;16.50;67.40;;;;;;6154045;23;20171;-78
2022/12/25 12:00:35;;;;;;;13.83;6.07;;;16.60;68.10;;;;;;6150956;23;20231;-78
2022/12/25 12:03:11;;;;;;;7.23;3.53;;;16.60;68.70;;;;;;6154140;23;20173;-78
2022/12/25 12:05:50;;;;;;;9.00;4.63;;;16.70;68.80;;;;;;6152253;23;20168;-78
2022/12/25 12:08:18;;;;;;;28.53;14.60;;;16.70;69.50;;;;;;6154088;23;20169;-78
2022/12/25 12:11:14;;;;;;;8.63;4.77;;;16.70;69.60;;;;;;6152776;23;20212;-78
2022/12/25 12:14:02;;;;;;;9.20;4.87;;;16.80;69.80;;;;;;6152558;23;20200;-79
2022/12/25 12:16:30;;;;;;;12.27;5.10;;;16.70;69.30;;;;;;6152968;23;20161;-78
2022/12/25 12:19:10;;;;;;;7.23;4.27;;;16.80;69.80;;;;;;6153315;23;20695;-79
2022/12/25 12:21:42;;;;;;;7.13;4.10;;;16.70;69.10;;;;;;6151699;23;20160;-79
2022/12/25 12:24:16;;;;;;;8.93;4.67;;;16.70;69.70;;;;;;6151501;23;20235;-79
2022/12/25 12:26:47;;;;;;;15.53;8.50;;;16.80;69.90;;;;;;6153508;23;20161;-79
2022/12/25 12:29:25;;;;;;;12.73;6.27;;;16.80;70.30;;;;;;6153408;23;20657;-77
2022/12/25 12:31:58;;;;;;;10.07;5.63;;;16.80;70.90;;;;;;6151486;23;20160;-77
2022/12/25 12:34:29;;;;;;;13.17;4.80;;;16.80;71.20;;;;;;6153418;23;20614;-78
2022/12/25 12:37:03;;;;;;;12.67;5.60;;;16.90;71.50;;;;;;6152101;23;20168;-77
2022/12/25 12:39:36;;;;;;;12.73;6.40;;;16.90;70.90;;;;;;6150760;23;20172;-78
2022/12/25 12:42:15;;;;;;;9.70;4.67;;;16.90;70.80;;;;;;6152711;23;20156;-78
2022/12/25 12:44:46;;;;;;;10.43;5.23;;;16.90;70.60;;;;;;6153976;23;20244;-78
2022/12/25 12:47:30;;;;;;;7.10;4.17;;;16.90;70.40;;;;;;6150559;23;20161;-78
2022/12/25 12:49:59;;;;;;;7.33;4.37;;;16.90;70.60;;;;;;6152260;23;20191;-78
2022/12/25 12:52:34;;;;;;;8.97;5.60;;;16.90;70.20;;;;;;6152495;23;20177;-78
2022/12/25 12:55:05;;;;;;;9.40;5.57;;;16.90;70.50;;;;;;6152880;23;20156;-78
2022/12/25 12:57:38;;;;;;;6.90;4.17;;;16.90;71.10;;;;;;6152269;23;20180;-78
2022/12/25 13:00:18;;;;;;;8.07;4.30;;;16.90;71.30;;;;;;6150805;23;20198;-79
2022/12/25 13:03:05;;;;;;;9.73;4.80;;;17.00;71.90;;;;;;6152138;23;20236;-79
2022/12/25 13:05:40;;;;;;;11.77;5.73;;;17.10;71.30;;;;;;6152322;23;20183;-79
2022/12/25 13:08:22;;;;;;;11.47;4.40;;;17.20;71.80;;;;;;6153827;23;20597;-79
2022/12/25 13:11:07;;;;;;;7.35;4.00;;;17.50;72.40;;;;;;6152038;23;20185;-79
2022/12/25 13:13:39;;;;;;;7.18;4.13;;;17.60;71.20;;;;;;6151571;23;20521;-79
2022/12/25 13:16:18;;;;;;;7.30;4.30;;;17.70;70.70;;;;;;6153159;23;20217;-77
2022/12/25 13:18:47;;;;;;;6.93;4.35;;;17.80;70.20;;;;;;6150118;23;20161;-78
2022/12/25 13:21:20;;;;;;;12.57;4.70;;;17.90;70.10;;;;;;6147695;23;20204;-78
2022/12/25 13:23:55;;;;;;;10.88;6.00;;;17.90;71.00;;;;;;6150910;23;20501;-78
2022/12/25 13:26:23;;;;;;;11.30;6.10;;;18.10;69.30;;;;;;6150360;23;20660;-78
2022/12/25 13:28:54;;;;;;;10.13;4.18;;;18.50;69.50;;;;;;6150947;23;20172;-78
2022/12/25 13:31:26;;;;;;;12.48;5.20;;;19.80;65.20;;;;;;6149916;23;20555;-79
2022/12/25 13:33:58;;;;;;;6.70;4.40;;;21.10;62.70;;;;;;6152580;23;20164;-78
2022/12/25 13:36:28;;;;;;;7.97;4.85;;;23.20;58.20;;;;;;6151400;23;20160;-79
2022/12/25 13:38:58;;;;;;;9.93;5.57;;;24.50;54.40;;;;;;6153228;23;20216;-79
2022/12/25 13:44:23;;;;;;;5.80;3.30;;;26.90;51.50;;;;;;6151304;23;20161;-79
2022/12/25 13:46:52;;;;;;;6.22;3.28;;;27.10;50.90;;;;;;6151723;23;20160;-79
2022/12/25 13:49:22;;;;;;;7.18;3.72;;;27.90;49.80;;;;;;6149573;23;20172;-78
2022/12/25 13:51:51;;;;;;;12.65;4.10;;;27.60;50.40;;;;;;6149925;23;20495;-79
2022/12/25 13:54:20;;;;;;;6.47;3.80;;;27.70;50.40;;;;;;6149000;23;21155;-79
2022/12/25 13:56:50;;;;;;;6.38;3.25;;;28.00;50.10;;;;;;6152069;23;20177;-78
2022/12/25 13:59:20;;;;;;;9.50;3.42;;;27.80;48.40;;;;;;6151765;23;20172;-78
2022/12/25 14:01:50;;;;;;;7.85;4.38;;;27.40;48.00;;;;;;6147280;23;20200;-78
2022/12/25 14:04:22;;;;;;;20.05;8.73;;;27.70;47.30;;;;;;6150111;23;20259;-79
2022/12/25 14:06:52;;;;;;;28.20;12.73;;;27.50;47.00;;;;;;6152529;23;20161;-79
2022/12/25 14:09:21;;;;;;;16.65;9.13;;;26.80;47.00;;;;;;6150471;23;20172;-78
2022/12/25 14:11:52;;;;;;;20.20;10.55;;;25.70;48.20;;;;;;6151514;23;20637;-78
2022/12/25 14:14:22;;;;;;;23.25;8.77;;;24.80;49.40;;;;;;6149067;23;20172;-78
2022/12/25 14:16:53;;;;;;;7.65;4.32;;;24.00;50.40;;;;;;6152572;23;20551;-78
2022/12/25 14:19:28;;;;;;;15.32;7.80;;;23.30;51.20;;;;;;6144182;23;20161;-80
2022/12/25 14:22:01;;;;;;;16.80;7.63;;;22.60;52.10;;;;;;6145216;23;20191;-79
2022/12/25 14:24:32;;;;;;;13.38;6.25;;;22.10;53.00;;;;;;6152296;23;20161;-78
2022/12/25 14:27:02;;;;;;;17.60;5.43;;;21.60;53.70;;;;;;6148601;23;20161;-79
2022/12/25 14:29:36;;;;;;;9.57;4.22;;;21.10;54.40;;;;;;6151036;23;20566;-78
2022/12/25 14:32:07;;;;;;;7.93;4.47;;;20.70;55.10;;;;;;6147893;23;20218;-78
2022/12/25 14:34:37;;;;;;;6.35;3.55;;;20.30;55.70;;;;;;6150308;23;20188;-78
2022/12/25 14:37:07;;;;;;;8.52;3.95;;;20.00;56.40;;;;;;6151771;23;20688;-78
2022/12/25 14:39:37;;;;;;;11.23;4.90;;;19.60;56.80;;;;;;6155289;23;20161;-79
2022/12/25 14:42:17;;;;;;;14.87;5.37;;;19.30;57.30;;;;;;6153641;23;20185;-80
2022/12/25 14:44:57;;;;;;;9.90;4.50;;;19.00;57.80;;;;;;6152967;23;20277;-78
2022/12/25 14:47:26;;;;;;;14.73;4.60;;;18.70;58.30;;;;;;6151611;23;20164;-78
2022/12/25 14:49:57;;;;;;;11.57;5.00;;;18.40;58.80;;;;;;6145474;23;20226;-78
2022/12/25 14:52:29;;;;;;;17.17;6.40;;;18.10;59.30;;;;;;6152227;23;20160;-78